sensor_id;sensor_type;location;lat;lon;timestamp;temperature;humidity
3701;DHT22;1866;48.374;10.766;2023-05-23T00:00:12;15.00;1.00
3701;DHT22;1866;48.374;10.766;2023-05-23T00:02:39;15.00;1.00
3701;DHT22;1866;48.374;10.766;2023-05-23T00:05:08;15.00;1.00
3701;DHT22;1866;48.374;10.766;2023-05-23T00:07:35;15.00;1.00
3701;DHT22;1866;48.374;10.766;2023-05-23T00:10:02;15.00;1.00
3701;DHT22;1866;48.374;10.766;2023-05-23T00:12:32;15.00;1.00
3701;DHT22;1866;48.374;10.766;2023-05-23T00:14:59;15.00;1.00
3701;DHT22;1866;48.374;10.766;2023-05-23T00:17:29;15.00;1.00
3701;DHT22;1866;48.374;10.766;2023-05-23T00:19:56;14.90;1.00
3701;DHT22;1866;48.374;10.766;2023-05-23T00:22:24;14.90;1.00
3701;DHT22;1866;48.374;10.766;2023-05-23T00:24:52;14.90;1.00
3701;DHT22;1866;48.374;10.766;2023-05-23T00:27:18;14.90;1.00
3701;DHT22;1866;48.374;10.766;2023-05-23T00:29:47;14.90;1.00
3701;DHT22;1866;48.374;10.766;2023-05-23T00:32:14;14.90;1.00
3701;DHT22;1866;48.374;10.766;2023-05-23T00:34:40;14.80;1.00
3701;DHT22;1866;48.374;10.766;2023-05-23T00:37:07;14.80;1.00
3701;DHT22;1866;48.374;10.766;2023-05-23T00:39:34;14.70;1.00
3701;DHT22;1866;48.374;10.766;2023-05-23T00:42:04;14.60;1.00
3701;DHT22;1866;48.374;10.766;2023-05-23T00:44:32;14.60;1.00
3701;DHT22;1866;48.374;10.766;2023-05-23T00:47:00;14.70;1.00
3701;DHT22;1866;48.374;10.766;2023-05-23T00:49:29;14.80;1.00
3701;DHT22;1866;48.374;10.766;2023-05-23T00:51:56;14.80;1.00
3701;DHT22;1866;48.374;10.766;2023-05-23T00:54:25;14.70;1.00
3701;DHT22;1866;48.374;10.766;2023-05-23T00:56:53;14.70;1.00
3701;DHT22;1866;48.374;10.766;2023-05-23T00:59:21;14.70;1.00
3701;DHT22;1866;48.374;10.766;2023-05-23T01:01:50;14.80;1.00
3701;DHT22;1866;48.374;10.766;2023-05-23T01:04:19;14.40;1.00
3701;DHT22;1866;48.374;10.766;2023-05-23T01:06:51;14.40;1.00
3701;DHT22;1866;48.374;10.766;2023-05-23T01:09:19;14.50;1.00
3701;DHT22;1866;48.374;10.766;2023-05-23T01:11:53;14.50;1.00
3701;DHT22;1866;48.374;10.766;2023-05-23T01:14:31;14.40;1.00
3701;DHT22;1866;48.374;10.766;2023-05-23T01:17:03;14.30;1.00
3701;DHT22;1866;48.374;10.766;2023-05-23T01:19:54;14.40;1.00
3701;DHT22;1866;48.374;10.766;2023-05-23T01:25:27;14.40;1.00
3701;DHT22;1866;48.374;10.766;2023-05-23T01:27:59;14.20;1.00
3701;DHT22;1866;48.374;10.766;2023-05-23T01:30:31;14.30;1.00
3701;DHT22;1866;48.374;10.766;2023-05-23T01:32:58;14.30;1.00
3701;DHT22;1866;48.374;10.766;2023-05-23T01:35:26;14.30;1.00
3701;DHT22;1866;48.374;10.766;2023-05-23T01:37:55;14.20;1.00
3701;DHT22;1866;48.374;10.766;2023-05-23T01:40:24;14.20;3.40
3701;DHT22;1866;48.374;10.766;2023-05-23T01:42:52;14.10;1.00
3701;DHT22;1866;48.374;10.766;2023-05-23T01:45:24;14.00;13.40
3701;DHT22;1866;48.374;10.766;2023-05-23T01:47:53;14.00;25.80
3701;DHT22;1866;48.374;10.766;2023-05-23T01:50:21;14.10;17.90
3701;DHT22;1866;48.374;10.766;2023-05-23T01:52:48;14.00;23.40
3701;DHT22;1866;48.374;10.766;2023-05-23T01:55:17;14.10;20.50
3701;DHT22;1866;48.374;10.766;2023-05-23T01:57:47;14.10;22.90
3701;DHT22;1866;48.374;10.766;2023-05-23T02:00:16;14.10;22.80
3701;DHT22;1866;48.374;10.766;2023-05-23T02:02:46;14.00;29.70
3701;DHT22;1866;48.374;10.766;2023-05-23T02:05:13;14.00;29.20
3701;DHT22;1866;48.374;10.766;2023-05-23T02:07:41;14.00;31.20
3701;DHT22;1866;48.374;10.766;2023-05-23T02:10:09;13.90;33.20
3701;DHT22;1866;48.374;10.766;2023-05-23T02:12:35;14.00;36.20
3701;DHT22;1866;48.374;10.766;2023-05-23T02:15:03;13.90;49.80
3701;DHT22;1866;48.374;10.766;2023-05-23T02:17:32;13.80;63.40
3701;DHT22;1866;48.374;10.766;2023-05-23T02:20:00;13.80;77.10
3701;DHT22;1866;48.374;10.766;2023-05-23T02:22:29;13.80;91.00
3701;DHT22;1866;48.374;10.766;2023-05-23T02:24:56;13.80;97.60
3701;DHT22;1866;48.374;10.766;2023-05-23T02:27:23;13.90;99.70
3701;DHT22;1866;48.374;10.766;2023-05-23T02:29:51;13.80;95.90
3701;DHT22;1866;48.374;10.766;2023-05-23T02:32:18;13.70;99.40
3701;DHT22;1866;48.374;10.766;2023-05-23T02:34:46;13.70;99.90
3701;DHT22;1866;48.374;10.766;2023-05-23T02:37:16;13.70;99.90
3701;DHT22;1866;48.374;10.766;2023-05-23T02:39:45;13.70;99.90
3701;DHT22;1866;48.374;10.766;2023-05-23T02:42:11;13.70;99.90
3701;DHT22;1866;48.374;10.766;2023-05-23T02:44:38;13.70;99.90
3701;DHT22;1866;48.374;10.766;2023-05-23T02:47:05;13.60;99.90
3701;DHT22;1866;48.374;10.766;2023-05-23T02:49:34;13.50;99.90
3701;DHT22;1866;48.374;10.766;2023-05-23T02:52:00;13.50;99.90
3701;DHT22;1866;48.374;10.766;2023-05-23T02:54:30;13.50;99.90
3701;DHT22;1866;48.374;10.766;2023-05-23T02:56:57;13.50;99.90
3701;DHT22;1866;48.374;10.766;2023-05-23T02:59:24;13.50;99.90
3701;DHT22;1866;48.374;10.766;2023-05-23T03:01:51;13.50;99.90
3701;DHT22;1866;48.374;10.766;2023-05-23T03:04:18;13.60;99.90
3701;DHT22;1866;48.374;10.766;2023-05-23T03:06:46;13.60;99.90
3701;DHT22;1866;48.374;10.766;2023-05-23T03:09:14;13.60;99.90
3701;DHT22;1866;48.374;10.766;2023-05-23T03:11:46;13.60;99.90
3701;DHT22;1866;48.374;10.766;2023-05-23T03:14:14;13.60;99.90
3701;DHT22;1866;48.374;10.766;2023-05-23T03:16:43;13.50;99.90
3701;DHT22;1866;48.374;10.766;2023-05-23T03:19:13;13.60;99.90
3701;DHT22;1866;48.374;10.766;2023-05-23T03:21:40;13.50;99.90
3701;DHT22;1866;48.374;10.766;2023-05-23T03:24:07;13.50;99.90
3701;DHT22;1866;48.374;10.766;2023-05-23T03:26:33;13.40;99.90
3701;DHT22;1866;48.374;10.766;2023-05-23T03:29:03;13.50;99.90
3701;DHT22;1866;48.374;10.766;2023-05-23T03:31:36;13.50;99.90
3701;DHT22;1866;48.374;10.766;2023-05-23T03:34:04;13.60;99.90
3701;DHT22;1866;48.374;10.766;2023-05-23T03:36:32;13.60;99.90
3701;DHT22;1866;48.374;10.766;2023-05-23T03:39:00;13.50;99.90
3701;DHT22;1866;48.374;10.766;2023-05-23T03:41:33;13.50;99.90
3701;DHT22;1866;48.374;10.766;2023-05-23T03:44:00;13.50;99.90
3701;DHT22;1866;48.374;10.766;2023-05-23T03:46:29;13.50;99.90
3701;DHT22;1866;48.374;10.766;2023-05-23T03:48:56;13.50;99.90
3701;DHT22;1866;48.374;10.766;2023-05-23T03:51:22;13.50;99.90
3701;DHT22;1866;48.374;10.766;2023-05-23T03:53:50;13.50;99.90
3701;DHT22;1866;48.374;10.766;2023-05-23T03:56:17;13.50;99.90
3701;DHT22;1866;48.374;10.766;2023-05-23T03:58:45;13.60;99.90
3701;DHT22;1866;48.374;10.766;2023-05-23T04:01:13;13.60;99.90
3701;DHT22;1866;48.374;10.766;2023-05-23T04:03:42;13.60;99.90
3701;DHT22;1866;48.374;10.766;2023-05-23T04:06:09;13.70;99.90
3701;DHT22;1866;48.374;10.766;2023-05-23T04:08:36;14.00;99.90
3701;DHT22;1866;48.374;10.766;2023-05-23T04:11:03;14.40;99.90
3701;DHT22;1866;48.374;10.766;2023-05-23T04:13:30;14.80;73.50
3701;DHT22;1866;48.374;10.766;2023-05-23T04:15:59;15.00;32.60
3701;DHT22;1866;48.374;10.766;2023-05-23T04:18:27;15.20;15.10
3701;DHT22;1866;48.374;10.766;2023-05-23T04:20:57;15.40;1.00
3701;DHT22;1866;48.374;10.766;2023-05-23T04:23:25;15.50;1.00
3701;DHT22;1866;48.374;10.766;2023-05-23T04:25:52;15.70;1.00
3701;DHT22;1866;48.374;10.766;2023-05-23T04:28:20;15.90;1.00
3701;DHT22;1866;48.374;10.766;2023-05-23T04:30:47;15.30;1.00
3701;DHT22;1866;48.374;10.766;2023-05-23T04:33:16;14.90;22.60
3701;DHT22;1866;48.374;10.766;2023-05-23T04:35:44;15.30;25.50
3701;DHT22;1866;48.374;10.766;2023-05-23T04:38:12;15.00;31.00
3701;DHT22;1866;48.374;10.766;2023-05-23T04:40:40;15.70;22.40
3701;DHT22;1866;48.374;10.766;2023-05-23T04:43:07;16.40;1.00
3701;DHT22;1866;48.374;10.766;2023-05-23T04:45:38;16.40;1.00
3701;DHT22;1866;48.374;10.766;2023-05-23T04:48:06;16.40;1.00
3701;DHT22;1866;48.374;10.766;2023-05-23T04:50:33;16.20;1.00
3701;DHT22;1866;48.374;10.766;2023-05-23T04:53:03;16.00;1.00
3701;DHT22;1866;48.374;10.766;2023-05-23T04:55:32;15.60;7.20
3701;DHT22;1866;48.374;10.766;2023-05-23T04:57:59;15.40;49.00
3701;DHT22;1866;48.374;10.766;2023-05-23T05:00:28;15.60;43.20
3701;DHT22;1866;48.374;10.766;2023-05-23T05:02:55;15.40;56.80
3701;DHT22;1866;48.374;10.766;2023-05-23T05:05:22;15.20;92.20
3701;DHT22;1866;48.374;10.766;2023-05-23T05:07:49;15.40;83.00
3701;DHT22;1866;48.374;10.766;2023-05-23T05:10:19;15.40;76.80
3701;DHT22;1866;48.374;10.766;2023-05-23T05:12:48;15.30;89.00
3701;DHT22;1866;48.374;10.766;2023-05-23T05:15:15;15.30;93.10
3701;DHT22;1866;48.374;10.766;2023-05-23T05:17:43;15.40;90.00
3701;DHT22;1866;48.374;10.766;2023-05-23T05:20:12;15.60;60.70
3701;DHT22;1866;48.374;10.766;2023-05-23T05:22:39;16.00;45.00
3701;DHT22;1866;48.374;10.766;2023-05-23T05:25:08;16.20;21.40
3701;DHT22;1866;48.374;10.766;2023-05-23T05:27:36;16.50;1.00
3701;DHT22;1866;48.374;10.766;2023-05-23T05:30:06;16.20;1.00
3701;DHT22;1866;48.374;10.766;2023-05-23T05:32:33;16.30;1.00
3701;DHT22;1866;48.374;10.766;2023-05-23T05:35:01;16.70;1.00
3701;DHT22;1866;48.374;10.766;2023-05-23T05:37:28;16.40;1.00
3701;DHT22;1866;48.374;10.766;2023-05-23T05:39:55;16.40;1.00
3701;DHT22;1866;48.374;10.766;2023-05-23T05:42:23;16.60;1.00
3701;DHT22;1866;48.374;10.766;2023-05-23T05:44:50;16.80;1.00
3701;DHT22;1866;48.374;10.766;2023-05-23T05:47:18;17.00;1.00
3701;DHT22;1866;48.374;10.766;2023-05-23T05:49:46;16.60;1.00
3701;DHT22;1866;48.374;10.766;2023-05-23T05:52:12;16.40;2.10
3701;DHT22;1866;48.374;10.766;2023-05-23T05:54:39;16.70;1.00
3701;DHT22;1866;48.374;10.766;2023-05-23T05:57:07;16.70;1.00
3701;DHT22;1866;48.374;10.766;2023-05-23T05:59:34;16.80;1.00
3701;DHT22;1866;48.374;10.766;2023-05-23T06:02:01;16.70;1.00
3701;DHT22;1866;48.374;10.766;2023-05-23T06:04:29;16.20;19.60
3701;DHT22;1866;48.374;10.766;2023-05-23T06:06:56;16.20;31.20
3701;DHT22;1866;48.374;10.766;2023-05-23T06:09:23;16.10;46.70
3701;DHT22;1866;48.374;10.766;2023-05-23T06:11:50;16.00;48.50
3701;DHT22;1866;48.374;10.766;2023-05-23T06:14:17;16.10;59.30
3701;DHT22;1866;48.374;10.766;2023-05-23T06:16:44;16.20;57.30
3701;DHT22;1866;48.374;10.766;2023-05-23T06:19:11;16.10;63.30
3701;DHT22;1866;48.374;10.766;2023-05-23T06:21:39;16.10;58.00
3701;DHT22;1866;48.374;10.766;2023-05-23T06:24:06;16.10;62.50
3701;DHT22;1866;48.374;10.766;2023-05-23T06:26:36;16.20;54.70
3701;DHT22;1866;48.374;10.766;2023-05-23T06:29:04;16.30;47.30
3701;DHT22;1866;48.374;10.766;2023-05-23T06:31:31;16.30;35.00
3701;DHT22;1866;48.374;10.766;2023-05-23T06:33:58;16.20;51.90
3701;DHT22;1866;48.374;10.766;2023-05-23T06:36:24;16.30;54.30
3701;DHT22;1866;48.374;10.766;2023-05-23T06:38:54;16.30;48.70
3701;DHT22;1866;48.374;10.766;2023-05-23T06:41:21;16.20;53.30
3701;DHT22;1866;48.374;10.766;2023-05-23T06:43:48;16.20;66.50
3701;DHT22;1866;48.374;10.766;2023-05-23T06:46:15;16.20;70.40
3701;DHT22;1866;48.374;10.766;2023-05-23T06:48:42;16.20;73.40
3701;DHT22;1866;48.374;10.766;2023-05-23T06:51:08;16.40;81.00
3701;DHT22;1866;48.374;10.766;2023-05-23T06:53:36;16.30;66.70
3701;DHT22;1866;48.374;10.766;2023-05-23T06:56:05;16.40;60.10
3701;DHT22;1866;48.374;10.766;2023-05-23T06:58:32;16.30;51.80
3701;DHT22;1866;48.374;10.766;2023-05-23T07:00:59;16.30;50.60
3701;DHT22;1866;48.374;10.766;2023-05-23T07:03:26;16.40;47.40
3701;DHT22;1866;48.374;10.766;2023-05-23T07:05:53;16.60;32.30
3701;DHT22;1866;48.374;10.766;2023-05-23T07:08:20;16.60;27.20
3701;DHT22;1866;48.374;10.766;2023-05-23T07:10:46;16.50;21.80
3701;DHT22;1866;48.374;10.766;2023-05-23T07:13:25;16.40;27.80
3701;DHT22;1866;48.374;10.766;2023-05-23T07:15:52;16.50;29.40
3701;DHT22;1866;48.374;10.766;2023-05-23T07:18:19;16.50;18.30
3701;DHT22;1866;48.374;10.766;2023-05-23T07:20:46;16.60;1.00
3701;DHT22;1866;48.374;10.766;2023-05-23T07:23:13;16.80;1.00
3701;DHT22;1866;48.374;10.766;2023-05-23T07:25:40;16.80;1.00
3701;DHT22;1866;48.374;10.766;2023-05-23T07:28:07;16.80;1.00
3701;DHT22;1866;48.374;10.766;2023-05-23T07:30:35;17.00;1.00
3701;DHT22;1866;48.374;10.766;2023-05-23T07:33:02;17.00;1.00
3701;DHT22;1866;48.374;10.766;2023-05-23T07:35:29;17.10;1.00
3701;DHT22;1866;48.374;10.766;2023-05-23T07:37:56;17.10;1.00
3701;DHT22;1866;48.374;10.766;2023-05-23T07:40:22;17.20;1.00
3701;DHT22;1866;48.374;10.766;2023-05-23T07:42:50;17.20;1.00
3701;DHT22;1866;48.374;10.766;2023-05-23T07:45:17;17.10;1.00
3701;DHT22;1866;48.374;10.766;2023-05-23T07:47:46;17.10;1.00
3701;DHT22;1866;48.374;10.766;2023-05-23T07:50:13;17.20;1.00
3701;DHT22;1866;48.374;10.766;2023-05-23T07:52:40;17.00;1.00
3701;DHT22;1866;48.374;10.766;2023-05-23T07:55:08;17.10;1.00
3701;DHT22;1866;48.374;10.766;2023-05-23T07:57:35;17.20;1.00
3701;DHT22;1866;48.374;10.766;2023-05-23T08:00:02;16.90;1.00
3701;DHT22;1866;48.374;10.766;2023-05-23T08:02:30;17.00;1.00
3701;DHT22;1866;48.374;10.766;2023-05-23T08:04:58;17.00;1.00
3701;DHT22;1866;48.374;10.766;2023-05-23T08:07:26;17.00;1.00
3701;DHT22;1866;48.374;10.766;2023-05-23T08:09:53;17.10;1.00
3701;DHT22;1866;48.374;10.766;2023-05-23T08:12:20;17.20;1.00
3701;DHT22;1866;48.374;10.766;2023-05-23T08:14:47;17.40;1.00
3701;DHT22;1866;48.374;10.766;2023-05-23T08:17:13;17.30;1.00
3701;DHT22;1866;48.374;10.766;2023-05-23T08:19:40;17.40;1.00
3701;DHT22;1866;48.374;10.766;2023-05-23T08:22:09;17.40;1.00
3701;DHT22;1866;48.374;10.766;2023-05-23T08:24:37;17.60;1.00
3701;DHT22;1866;48.374;10.766;2023-05-23T08:27:04;17.50;1.00
3701;DHT22;1866;48.374;10.766;2023-05-23T08:29:32;17.50;1.00
3701;DHT22;1866;48.374;10.766;2023-05-23T08:31:59;17.40;1.00
3701;DHT22;1866;48.374;10.766;2023-05-23T08:34:27;17.40;1.00
3701;DHT22;1866;48.374;10.766;2023-05-23T08:36:55;17.30;1.00
3701;DHT22;1866;48.374;10.766;2023-05-23T08:39:23;17.20;1.00
3701;DHT22;1866;48.374;10.766;2023-05-23T08:41:50;17.10;1.00
3701;DHT22;1866;48.374;10.766;2023-05-23T08:44:17;17.10;1.00
3701;DHT22;1866;48.374;10.766;2023-05-23T08:46:45;17.10;1.00
3701;DHT22;1866;48.374;10.766;2023-05-23T08:49:16;17.00;1.00
3701;DHT22;1866;48.374;10.766;2023-05-23T08:51:44;16.90;1.00
3701;DHT22;1866;48.374;10.766;2023-05-23T08:54:12;16.90;1.00
3701;DHT22;1866;48.374;10.766;2023-05-23T08:56:43;16.90;1.00
3701;DHT22;1866;48.374;10.766;2023-05-23T08:59:11;16.90;1.00
3701;DHT22;1866;48.374;10.766;2023-05-23T09:01:39;16.90;1.00
3701;DHT22;1866;48.374;10.766;2023-05-23T09:04:07;16.90;1.00
3701;DHT22;1866;48.374;10.766;2023-05-23T09:06:35;16.80;1.00
3701;DHT22;1866;48.374;10.766;2023-05-23T09:09:04;16.90;1.00
3701;DHT22;1866;48.374;10.766;2023-05-23T09:11:31;17.10;1.00
3701;DHT22;1866;48.374;10.766;2023-05-23T09:14:00;17.20;1.00
3701;DHT22;1866;48.374;10.766;2023-05-23T09:16:34;17.40;1.00
3701;DHT22;1866;48.374;10.766;2023-05-23T09:19:09;17.50;1.00
3701;DHT22;1866;48.374;10.766;2023-05-23T09:21:36;17.70;1.00
3701;DHT22;1866;48.374;10.766;2023-05-23T09:24:07;17.80;1.00
3701;DHT22;1866;48.374;10.766;2023-05-23T09:26:34;18.00;1.00
3701;DHT22;1866;48.374;10.766;2023-05-23T09:29:04;18.00;1.00
3701;DHT22;1866;48.374;10.766;2023-05-23T09:31:31;18.20;1.00
3701;DHT22;1866;48.374;10.766;2023-05-23T09:33:59;18.40;1.00
3701;DHT22;1866;48.374;10.766;2023-05-23T09:36:27;18.30;1.00
3701;DHT22;1866;48.374;10.766;2023-05-23T09:38:55;18.60;1.00
3701;DHT22;1866;48.374;10.766;2023-05-23T09:41:22;18.80;1.00
3701;DHT22;1866;48.374;10.766;2023-05-23T09:43:52;19.20;1.00
3701;DHT22;1866;48.374;10.766;2023-05-23T09:46:27;19.00;1.00
3701;DHT22;1866;48.374;10.766;2023-05-23T09:48:55;18.90;1.00
3701;DHT22;1866;48.374;10.766;2023-05-23T09:51:23;18.80;1.00
3701;DHT22;1866;48.374;10.766;2023-05-23T09:53:50;19.20;1.00
3701;DHT22;1866;48.374;10.766;2023-05-23T09:56:18;19.10;1.00
3701;DHT22;1866;48.374;10.766;2023-05-23T09:58:47;19.30;1.00
3701;DHT22;1866;48.374;10.766;2023-05-23T10:01:14;19.50;1.00
3701;DHT22;1866;48.374;10.766;2023-05-23T10:03:48;19.30;1.00
3701;DHT22;1866;48.374;10.766;2023-05-23T10:06:19;19.20;1.00
3701;DHT22;1866;48.374;10.766;2023-05-23T10:08:53;19.00;1.00
3701;DHT22;1866;48.374;10.766;2023-05-23T10:14:44;19.40;1.00
3701;DHT22;1866;48.374;10.766;2023-05-23T10:17:17;19.00;1.00
3701;DHT22;1866;48.374;10.766;2023-05-23T10:19:50;18.80;1.00
3701;DHT22;1866;48.374;10.766;2023-05-23T10:22:20;18.90;1.00
3701;DHT22;1866;48.374;10.766;2023-05-23T10:24:48;19.20;1.00
3701;DHT22;1866;48.374;10.766;2023-05-23T10:27:16;19.40;1.00
3701;DHT22;1866;48.374;10.766;2023-05-23T10:29:43;19.50;1.00
3701;DHT22;1866;48.374;10.766;2023-05-23T10:32:12;20.10;1.00
3701;DHT22;1866;48.374;10.766;2023-05-23T10:34:45;19.90;1.00
3701;DHT22;1866;48.374;10.766;2023-05-23T10:37:22;19.60;1.00
3701;DHT22;1866;48.374;10.766;2023-05-23T10:39:58;19.70;1.00
3701;DHT22;1866;48.374;10.766;2023-05-23T10:42:34;19.70;1.00
3701;DHT22;1866;48.374;10.766;2023-05-23T10:45:14;19.40;1.00
3701;DHT22;1866;48.374;10.766;2023-05-23T10:47:41;19.40;1.00
3701;DHT22;1866;48.374;10.766;2023-05-23T10:50:11;19.30;1.00
3701;DHT22;1866;48.374;10.766;2023-05-23T10:52:41;19.40;1.00
3701;DHT22;1866;48.374;10.766;2023-05-23T10:55:15;19.60;1.00
3701;DHT22;1866;48.374;10.766;2023-05-23T10:57:43;20.10;1.00
3701;DHT22;1866;48.374;10.766;2023-05-23T11:00:14;20.10;1.00
3701;DHT22;1866;48.374;10.766;2023-05-23T11:02:58;20.20;1.00
3701;DHT22;1866;48.374;10.766;2023-05-23T11:05:27;20.10;1.00
3701;DHT22;1866;48.374;10.766;2023-05-23T11:08:18;20.20;1.00
3701;DHT22;1866;48.374;10.766;2023-05-23T11:10:54;20.20;1.00
3701;DHT22;1866;48.374;10.766;2023-05-23T11:13:22;20.20;1.00
3701;DHT22;1866;48.374;10.766;2023-05-23T11:15:49;19.80;1.00
3701;DHT22;1866;48.374;10.766;2023-05-23T11:18:21;19.90;1.00
3701;DHT22;1866;48.374;10.766;2023-05-23T11:20:51;19.80;1.00
3701;DHT22;1866;48.374;10.766;2023-05-23T11:23:38;19.70;1.00
3701;DHT22;1866;48.374;10.766;2023-05-23T11:26:29;19.50;1.00
3701;DHT22;1866;48.374;10.766;2023-05-23T11:28:56;19.30;1.00
3701;DHT22;1866;48.374;10.766;2023-05-23T11:31:23;19.50;1.00
3701;DHT22;1866;48.374;10.766;2023-05-23T11:33:51;19.70;1.00
3701;DHT22;1866;48.374;10.766;2023-05-23T11:36:20;20.20;1.00
3701;DHT22;1866;48.374;10.766;2023-05-23T11:38:49;20.40;1.00
3701;DHT22;1866;48.374;10.766;2023-05-23T11:41:17;19.90;1.00
3701;DHT22;1866;48.374;10.766;2023-05-23T11:43:51;19.60;1.00
3701;DHT22;1866;48.374;10.766;2023-05-23T11:46:18;19.40;1.00
3701;DHT22;1866;48.374;10.766;2023-05-23T11:48:45;19.50;1.00
3701;DHT22;1866;48.374;10.766;2023-05-23T11:51:13;19.70;1.00
3701;DHT22;1866;48.374;10.766;2023-05-23T11:53:41;19.70;1.00
3701;DHT22;1866;48.374;10.766;2023-05-23T11:56:09;19.80;1.00
3701;DHT22;1866;48.374;10.766;2023-05-23T11:58:37;20.00;1.00
3701;DHT22;1866;48.374;10.766;2023-05-23T12:01:06;20.40;1.00
3701;DHT22;1866;48.374;10.766;2023-05-23T12:03:34;20.70;1.00
3701;DHT22;1866;48.374;10.766;2023-05-23T12:06:03;20.60;1.00
3701;DHT22;1866;48.374;10.766;2023-05-23T12:08:30;20.60;1.00
3701;DHT22;1866;48.374;10.766;2023-05-23T12:10:57;20.10;1.00
3701;DHT22;1866;48.374;10.766;2023-05-23T12:13:27;19.70;1.00
3701;DHT22;1866;48.374;10.766;2023-05-23T12:15:55;19.80;1.00
3701;DHT22;1866;48.374;10.766;2023-05-23T12:18:23;20.00;1.00
3701;DHT22;1866;48.374;10.766;2023-05-23T12:20:50;20.10;1.00
3701;DHT22;1866;48.374;10.766;2023-05-23T12:23:18;20.00;1.00
3701;DHT22;1866;48.374;10.766;2023-05-23T12:25:49;20.00;1.00
3701;DHT22;1866;48.374;10.766;2023-05-23T12:28:18;20.10;1.00
3701;DHT22;1866;48.374;10.766;2023-05-23T12:30:46;20.00;1.00
3701;DHT22;1866;48.374;10.766;2023-05-23T12:33:14;19.90;1.00
3701;DHT22;1866;48.374;10.766;2023-05-23T12:35:44;20.00;1.00
3701;DHT22;1866;48.374;10.766;2023-05-23T12:38:14;20.20;1.00
3701;DHT22;1866;48.374;10.766;2023-05-23T12:40:42;20.20;1.00
3701;DHT22;1866;48.374;10.766;2023-05-23T12:43:10;20.20;1.00
3701;DHT22;1866;48.374;10.766;2023-05-23T12:45:37;19.90;1.00
3701;DHT22;1866;48.374;10.766;2023-05-23T12:48:07;19.80;1.00
3701;DHT22;1866;48.374;10.766;2023-05-23T12:50:34;19.70;1.00
3701;DHT22;1866;48.374;10.766;2023-05-23T12:53:01;19.60;1.00
3701;DHT22;1866;48.374;10.766;2023-05-23T12:55:29;19.70;1.00
3701;DHT22;1866;48.374;10.766;2023-05-23T12:57:56;19.80;1.00
3701;DHT22;1866;48.374;10.766;2023-05-23T13:00:23;19.80;1.00
3701;DHT22;1866;48.374;10.766;2023-05-23T13:02:50;19.60;1.00
3701;DHT22;1866;48.374;10.766;2023-05-23T13:05:19;19.40;1.00
3701;DHT22;1866;48.374;10.766;2023-05-23T13:07:47;19.50;1.00
3701;DHT22;1866;48.374;10.766;2023-05-23T13:10:14;19.60;1.00
3701;DHT22;1866;48.374;10.766;2023-05-23T13:12:41;19.60;1.00
3701;DHT22;1866;48.374;10.766;2023-05-23T13:15:10;19.70;1.00
3701;DHT22;1866;48.374;10.766;2023-05-23T13:17:37;19.70;1.00
3701;DHT22;1866;48.374;10.766;2023-05-23T13:20:04;19.90;1.00
3701;DHT22;1866;48.374;10.766;2023-05-23T13:22:33;20.50;1.00
3701;DHT22;1866;48.374;10.766;2023-05-23T13:25:00;20.30;1.00
3701;DHT22;1866;48.374;10.766;2023-05-23T13:27:27;19.70;1.00
3701;DHT22;1866;48.374;10.766;2023-05-23T13:29:54;19.50;1.00
3701;DHT22;1866;48.374;10.766;2023-05-23T13:32:20;19.50;1.00
3701;DHT22;1866;48.374;10.766;2023-05-23T13:34:47;19.70;1.00
3701;DHT22;1866;48.374;10.766;2023-05-23T13:37:14;19.70;1.00
3701;DHT22;1866;48.374;10.766;2023-05-23T13:39:42;19.80;1.00
3701;DHT22;1866;48.374;10.766;2023-05-23T13:42:10;20.00;1.00
3701;DHT22;1866;48.374;10.766;2023-05-23T13:44:37;20.40;1.00
3701;DHT22;1866;48.374;10.766;2023-05-23T13:47:11;20.40;1.00
3701;DHT22;1866;48.374;10.766;2023-05-23T13:49:39;20.30;1.00
3701;DHT22;1866;48.374;10.766;2023-05-23T13:52:07;19.80;1.00
3701;DHT22;1866;48.374;10.766;2023-05-23T13:54:33;19.80;1.00
3701;DHT22;1866;48.374;10.766;2023-05-23T13:57:02;19.90;1.00
3701;DHT22;1866;48.374;10.766;2023-05-23T13:59:29;20.30;1.00
3701;DHT22;1866;48.374;10.766;2023-05-23T14:01:56;20.50;1.00
3701;DHT22;1866;48.374;10.766;2023-05-23T14:04:22;20.20;1.00
3701;DHT22;1866;48.374;10.766;2023-05-23T14:06:50;20.40;1.00
3701;DHT22;1866;48.374;10.766;2023-05-23T14:09:16;20.20;1.00
3701;DHT22;1866;48.374;10.766;2023-05-23T14:11:43;20.30;1.00
3701;DHT22;1866;48.374;10.766;2023-05-23T14:14:11;20.10;1.00
3701;DHT22;1866;48.374;10.766;2023-05-23T14:16:39;20.10;1.00
3701;DHT22;1866;48.374;10.766;2023-05-23T14:19:06;20.20;1.00
3701;DHT22;1866;48.374;10.766;2023-05-23T14:21:33;20.80;1.00
3701;DHT22;1866;48.374;10.766;2023-05-23T14:24:00;20.00;1.00
3701;DHT22;1866;48.374;10.766;2023-05-23T14:26:27;20.20;1.00
3701;DHT22;1866;48.374;10.766;2023-05-23T14:28:55;20.40;1.00
3701;DHT22;1866;48.374;10.766;2023-05-23T14:31:23;20.20;1.00
3701;DHT22;1866;48.374;10.766;2023-05-23T14:33:50;20.30;1.00
3701;DHT22;1866;48.374;10.766;2023-05-23T14:36:18;20.40;1.00
3701;DHT22;1866;48.374;10.766;2023-05-23T14:38:45;20.20;1.00
3701;DHT22;1866;48.374;10.766;2023-05-23T14:41:14;20.10;1.00
3701;DHT22;1866;48.374;10.766;2023-05-23T14:43:41;19.90;1.00
3701;DHT22;1866;48.374;10.766;2023-05-23T14:46:08;20.00;1.00
3701;DHT22;1866;48.374;10.766;2023-05-23T14:48:39;19.90;1.00
3701;DHT22;1866;48.374;10.766;2023-05-23T14:51:07;19.90;1.00
3701;DHT22;1866;48.374;10.766;2023-05-23T14:53:34;19.60;1.00
3701;DHT22;1866;48.374;10.766;2023-05-23T14:56:03;19.80;1.00
3701;DHT22;1866;48.374;10.766;2023-05-23T14:58:29;19.60;1.00
3701;DHT22;1866;48.374;10.766;2023-05-23T15:00:56;19.60;1.00
3701;DHT22;1866;48.374;10.766;2023-05-23T15:03:23;19.70;1.00
3701;DHT22;1866;48.374;10.766;2023-05-23T15:05:53;19.70;1.00
3701;DHT22;1866;48.374;10.766;2023-05-23T15:08:20;19.90;1.00
3701;DHT22;1866;48.374;10.766;2023-05-23T15:10:48;19.90;1.00
3701;DHT22;1866;48.374;10.766;2023-05-23T15:13:16;19.80;1.00
3701;DHT22;1866;48.374;10.766;2023-05-23T15:15:43;19.50;1.00
3701;DHT22;1866;48.374;10.766;2023-05-23T15:18:11;19.60;1.00
3701;DHT22;1866;48.374;10.766;2023-05-23T15:20:40;19.60;1.00
3701;DHT22;1866;48.374;10.766;2023-05-23T15:23:09;19.80;1.00
3701;DHT22;1866;48.374;10.766;2023-05-23T15:25:37;19.20;1.00
3701;DHT22;1866;48.374;10.766;2023-05-23T15:28:05;19.20;1.00
3701;DHT22;1866;48.374;10.766;2023-05-23T15:30:32;19.40;1.00
3701;DHT22;1866;48.374;10.766;2023-05-23T15:33:00;19.20;1.00
3701;DHT22;1866;48.374;10.766;2023-05-23T15:35:27;19.10;1.00
3701;DHT22;1866;48.374;10.766;2023-05-23T15:37:54;18.90;1.00
3701;DHT22;1866;48.374;10.766;2023-05-23T15:40:24;18.90;1.00
3701;DHT22;1866;48.374;10.766;2023-05-23T15:42:54;19.00;1.00
3701;DHT22;1866;48.374;10.766;2023-05-23T15:45:21;18.80;1.00
3701;DHT22;1866;48.374;10.766;2023-05-23T15:47:50;18.80;1.00
3701;DHT22;1866;48.374;10.766;2023-05-23T15:50:17;18.50;1.00
3701;DHT22;1866;48.374;10.766;2023-05-23T15:52:44;18.50;1.00
3701;DHT22;1866;48.374;10.766;2023-05-23T15:55:11;18.80;1.00
3701;DHT22;1866;48.374;10.766;2023-05-23T15:57:40;18.50;1.00
3701;DHT22;1866;48.374;10.766;2023-05-23T16:00:08;18.60;1.00
3701;DHT22;1866;48.374;10.766;2023-05-23T16:02:35;18.60;1.00
3701;DHT22;1866;48.374;10.766;2023-05-23T16:05:01;18.50;1.00
3701;DHT22;1866;48.374;10.766;2023-05-23T16:07:29;18.40;1.00
3701;DHT22;1866;48.374;10.766;2023-05-23T16:09:56;18.60;1.00